Hlavní strana
METAR-TAF:

METAR-TAF

Letiště :

Porto Alegre, Rio Grande do Sul, Brazílie

zeměpisná šířka: 30-00S, zeměpisná délka: 051-11W, výška: 3 m

Aktuální stav počasí

Zpráva byla vytvořena před 20 minutami, v 23:00 UTC
Jihovýchodní vítr 7 kt
Teplota 24°C
Vlhkost vzduchu 83%
Tlak 1017 hPa
Viditelnost 10 km a více
Skoro jasno ve výšce 1500 ft
Skoro jasno ve výšce 2500 ft, Vertikální cumulus.
Zataženo ve výšce 2500 ft

METAR: SBPA 152300Z 14007KT 9999 FEW015 FEW025TCU OVC025 24/21 Q1017

Čas: 21:20 (23:20 UTC)

Předpověď počasí

Zpráva byla vytvořena před 8 hodinami a 5 minutami, v 15:15 UTC
Předpověď platná od 15 v 18 UTC do 16 v 18 UTC
Jihojihovýchodní vítr 11 kt
Viditelnost 10 km a více
Oblačno až skoro zataženo ve výšce 3500 ft
Změna
od 16 v 10 UTC do 16 v 12 UTC
Východní vítr 6 kt
Polojasno ve výšce 3500 ft

TAF: SBPA 151515Z 1518/1618 16011KT 9999 BKN035 TN21/1608Z TX34/1618Z BECMG 1610/1612 08006KT SCT035 RMK PDW

Stav a předpovědi počasí z více než 4 000 letišť (zprávy METAR a TAF).

Červené a žluté tečky na mapě představují dostupné meteorologické stanice.

Když kurzor umístíte na tečku, zobrazí se název stanice.

Pak kliknutím zobrazíte stav a předpověď počasí.

Chcete-li změnit mapu, kliknutím na zelené tlačítko se znaménkem +mapu přiblížíte, kliknutím na zelené tlačítko se znaménkem – mapu oddálíte a kliknutím na zelené šipky přejdete na sousední mapy.


METAR-TAF: